sensor_id;sensor_type;location;lat;lon;timestamp;temperature;humidity
78455;SHT31;67751;51.986;5.696;2023-07-30T00:01:11;18.5;69.1
78455;SHT31;67751;51.986;5.696;2023-07-30T00:03:40;18.5;68.8
78455;SHT31;67751;51.986;5.696;2023-07-30T00:06:10;18.5;68.8
78455;SHT31;67751;51.986;5.696;2023-07-30T00:08:39;18.5;68.7
78455;SHT31;67751;51.986;5.696;2023-07-30T00:11:09;18.5;68.8
78455;SHT31;67751;51.986;5.696;2023-07-30T00:13:38;18.5;68.6
78455;SHT31;67751;51.986;5.696;2023-07-30T00:16:08;18.4;68.5
78455;SHT31;67751;51.986;5.696;2023-07-30T00:18:37;18.4;68.4
78455;SHT31;67751;51.986;5.696;2023-07-30T00:21:07;18.4;69.5
78455;SHT31;67751;51.986;5.696;2023-07-30T00:23:37;18.4;68.6
78455;SHT31;67751;51.986;5.696;2023-07-30T00:26:06;18.4;68.7
78455;SHT31;67751;51.986;5.696;2023-07-30T00:28:36;18.4;68.5
78455;SHT31;67751;51.986;5.696;2023-07-30T00:31:06;18.3;68.9
78455;SHT31;67751;51.986;5.696;2023-07-30T00:33:36;18.3;68.8
78455;SHT31;67751;51.986;5.696;2023-07-30T00:36:06;18.3;68.3
78455;SHT31;67751;51.986;5.696;2023-07-30T00:38:35;18.3;68.5
78455;SHT31;67751;51.986;5.696;2023-07-30T00:41:05;18.3;68.7
78455;SHT31;67751;51.986;5.696;2023-07-30T00:43:34;18.3;68.6
78455;SHT31;67751;51.986;5.696;2023-07-30T00:46:04;18.3;68.8
78455;SHT31;67751;51.986;5.696;2023-07-30T00:48:34;18.2;68.6
78455;SHT31;67751;51.986;5.696;2023-07-30T00:51:04;18.2;69.1
78455;SHT31;67751;51.986;5.696;2023-07-30T00:53:34;18.2;69.2
78455;SHT31;67751;51.986;5.696;2023-07-30T00:56:05;18.2;69.6
78455;SHT31;67751;51.986;5.696;2023-07-30T00:58:35;18.2;69.3
78455;SHT31;67751;51.986;5.696;2023-07-30T01:01:05;18.2;69.2
78455;SHT31;67751;51.986;5.696;2023-07-30T01:03:35;18.2;69.1
78455;SHT31;67751;51.986;5.696;2023-07-30T01:06:05;18.1;69.0
78455;SHT31;67751;51.986;5.696;2023-07-30T01:08:35;18.1;69.2
78455;SHT31;67751;51.986;5.696;2023-07-30T01:11:09;18.1;69.2
78455;SHT31;67751;51.986;5.696;2023-07-30T01:13:40;18.1;69.1
78455;SHT31;67751;51.986;5.696;2023-07-30T01:16:11;18.1;69.2
78455;SHT31;67751;51.986;5.696;2023-07-30T01:18:41;18.1;69.2
78455;SHT31;67751;51.986;5.696;2023-07-30T01:21:10;18.0;69.0
78455;SHT31;67751;51.986;5.696;2023-07-30T01:23:42;18.0;69.4
78455;SHT31;67751;51.986;5.696;2023-07-30T01:26:17;18.0;69.5
78455;SHT31;67751;51.986;5.696;2023-07-30T01:28:54;18.0;69.2
78455;SHT31;67751;51.986;5.696;2023-07-30T01:31:26;18.0;69.4
78455;SHT31;67751;51.986;5.696;2023-07-30T01:33:57;17.9;69.8
78455;SHT31;67751;51.986;5.696;2023-07-30T01:36:30;17.9;69.3
78455;SHT31;67751;51.986;5.696;2023-07-30T01:39:01;17.9;69.5
78455;SHT31;67751;51.986;5.696;2023-07-30T01:41:31;17.9;69.4
78455;SHT31;67751;51.986;5.696;2023-07-30T01:44:03;17.9;69.8
78455;SHT31;67751;51.986;5.696;2023-07-30T01:46:33;17.9;70.0
78455;SHT31;67751;51.986;5.696;2023-07-30T01:49:02;17.9;69.9
78455;SHT31;67751;51.986;5.696;2023-07-30T01:51:32;17.9;70.5
78455;SHT31;67751;51.986;5.696;2023-07-30T01:54:01;17.9;69.9
78455;SHT31;67751;51.986;5.696;2023-07-30T01:56:31;17.8;70.1
78455;SHT31;67751;51.986;5.696;2023-07-30T01:59:00;17.8;69.9
78455;SHT31;67751;51.986;5.696;2023-07-30T02:01:32;17.8;69.9
78455;SHT31;67751;51.986;5.696;2023-07-30T02:04:01;17.8;70.1
78455;SHT31;67751;51.986;5.696;2023-07-30T02:06:31;17.8;70.2
78455;SHT31;67751;51.986;5.696;2023-07-30T02:09:01;17.8;70.0
78455;SHT31;67751;51.986;5.696;2023-07-30T02:11:31;17.8;70.1
78455;SHT31;67751;51.986;5.696;2023-07-30T02:14:00;17.8;69.9
78455;SHT31;67751;51.986;5.696;2023-07-30T02:16:30;17.8;70.4
78455;SHT31;67751;51.986;5.696;2023-07-30T02:19:00;17.9;70.6
78455;SHT31;67751;51.986;5.696;2023-07-30T02:21:29;17.9;70.8
78455;SHT31;67751;51.986;5.696;2023-07-30T02:24:00;17.9;70.8
78455;SHT31;67751;51.986;5.696;2023-07-30T02:26:30;17.9;70.7
78455;SHT31;67751;51.986;5.696;2023-07-30T02:28:59;17.9;71.1
78455;SHT31;67751;51.986;5.696;2023-07-30T02:31:29;17.9;71.4
78455;SHT31;67751;51.986;5.696;2023-07-30T02:33:59;17.9;71.4
78455;SHT31;67751;51.986;5.696;2023-07-30T02:36:28;17.9;70.8
78455;SHT31;67751;51.986;5.696;2023-07-30T02:38:58;17.9;71.3
78455;SHT31;67751;51.986;5.696;2023-07-30T02:41:27;17.9;71.3
78455;SHT31;67751;51.986;5.696;2023-07-30T02:43:57;17.9;71.7
78455;SHT31;67751;51.986;5.696;2023-07-30T02:46:28;17.9;71.1
78455;SHT31;67751;51.986;5.696;2023-07-30T02:48:59;17.9;71.1
78455;SHT31;67751;51.986;5.696;2023-07-30T02:51:28;17.9;71.7
78455;SHT31;67751;51.986;5.696;2023-07-30T02:54:04;17.9;71.3
78455;SHT31;67751;51.986;5.696;2023-07-30T02:56:36;17.9;71.9
78455;SHT31;67751;51.986;5.696;2023-07-30T02:59:06;17.9;72.2
78455;SHT31;67751;51.986;5.696;2023-07-30T03:01:35;17.9;72.2
78455;SHT31;67751;51.986;5.696;2023-07-30T03:04:05;18.0;72.0
78455;SHT31;67751;51.986;5.696;2023-07-30T03:06:37;18.0;72.1
78455;SHT31;67751;51.986;5.696;2023-07-30T03:09:06;18.0;72.0
78455;SHT31;67751;51.986;5.696;2023-07-30T03:11:38;18.0;72.0
78455;SHT31;67751;51.986;5.696;2023-07-30T03:14:07;18.0;72.4
78455;SHT31;67751;51.986;5.696;2023-07-30T03:16:37;18.0;72.1
78455;SHT31;67751;51.986;5.696;2023-07-30T03:19:06;18.0;72.3
78455;SHT31;67751;51.986;5.696;2023-07-30T03:21:38;18.0;72.4
78455;SHT31;67751;51.986;5.696;2023-07-30T03:24:07;18.0;72.1
78455;SHT31;67751;51.986;5.696;2023-07-30T03:26:37;18.0;72.4
78455;SHT31;67751;51.986;5.696;2023-07-30T03:29:07;18.1;72.4
78455;SHT31;67751;51.986;5.696;2023-07-30T03:31:36;18.1;72.5
78455;SHT31;67751;51.986;5.696;2023-07-30T03:34:06;18.1;72.3
78455;SHT31;67751;51.986;5.696;2023-07-30T03:36:36;18.1;72.0
78455;SHT31;67751;51.986;5.696;2023-07-30T03:39:07;18.1;72.0
78455;SHT31;67751;51.986;5.696;2023-07-30T03:41:37;18.1;72.3
78455;SHT31;67751;51.986;5.696;2023-07-30T03:44:06;18.1;72.1
78455;SHT31;67751;51.986;5.696;2023-07-30T03:46:36;18.1;72.2
78455;SHT31;67751;51.986;5.696;2023-07-30T03:49:05;18.1;71.8
78455;SHT31;67751;51.986;5.696;2023-07-30T03:51:35;18.1;72.0
78455;SHT31;67751;51.986;5.696;2023-07-30T03:54:06;18.1;72.1
78455;SHT31;67751;51.986;5.696;2023-07-30T03:56:37;18.1;72.2
78455;SHT31;67751;51.986;5.696;2023-07-30T03:59:07;18.1;72.4
78455;SHT31;67751;51.986;5.696;2023-07-30T04:01:37;18.1;72.3
78455;SHT31;67751;51.986;5.696;2023-07-30T04:04:06;18.1;72.7
78455;SHT31;67751;51.986;5.696;2023-07-30T04:06:36;18.1;72.7
78455;SHT31;67751;51.986;5.696;2023-07-30T04:09:05;18.1;72.7
78455;SHT31;67751;51.986;5.696;2023-07-30T04:11:35;18.1;72.9
78455;SHT31;67751;51.986;5.696;2023-07-30T04:14:05;18.1;72.9
78455;SHT31;67751;51.986;5.696;2023-07-30T04:16:36;18.1;73.2
78455;SHT31;67751;51.986;5.696;2023-07-30T04:19:06;18.1;73.4
78455;SHT31;67751;51.986;5.696;2023-07-30T04:21:35;18.1;73.3
78455;SHT31;67751;51.986;5.696;2023-07-30T04:24:05;18.1;73.4
78455;SHT31;67751;51.986;5.696;2023-07-30T04:26:34;18.1;73.5
78455;SHT31;67751;51.986;5.696;2023-07-30T04:29:04;18.1;74.0
78455;SHT31;67751;51.986;5.696;2023-07-30T04:31:34;18.1;73.8
78455;SHT31;67751;51.986;5.696;2023-07-30T04:34:03;18.1;74.2
78455;SHT31;67751;51.986;5.696;2023-07-30T04:36:33;18.2;74.2
78455;SHT31;67751;51.986;5.696;2023-07-30T04:39:03;18.2;74.3
78455;SHT31;67751;51.986;5.696;2023-07-30T04:41:33;18.2;74.5
78455;SHT31;67751;51.986;5.696;2023-07-30T04:44:02;18.2;74.6
78455;SHT31;67751;51.986;5.696;2023-07-30T04:46:32;18.2;74.7
78455;SHT31;67751;51.986;5.696;2023-07-30T04:49:03;18.2;74.6
78455;SHT31;67751;51.986;5.696;2023-07-30T04:51:35;18.2;75.0
78455;SHT31;67751;51.986;5.696;2023-07-30T04:54:06;18.2;74.8
78455;SHT31;67751;51.986;5.696;2023-07-30T04:56:36;18.2;75.1
78455;SHT31;67751;51.986;5.696;2023-07-30T04:59:05;18.2;75.0
78455;SHT31;67751;51.986;5.696;2023-07-30T05:01:35;18.3;75.1
78455;SHT31;67751;51.986;5.696;2023-07-30T05:04:05;18.3;75.0
78455;SHT31;67751;51.986;5.696;2023-07-30T05:06:35;18.3;74.9
78455;SHT31;67751;51.986;5.696;2023-07-30T05:09:04;18.3;74.8
78455;SHT31;67751;51.986;5.696;2023-07-30T05:11:34;18.3;74.8
78455;SHT31;67751;51.986;5.696;2023-07-30T05:14:03;18.3;74.8
78455;SHT31;67751;51.986;5.696;2023-07-30T05:16:33;18.3;74.8
78455;SHT31;67751;51.986;5.696;2023-07-30T05:19:03;18.3;74.5
78455;SHT31;67751;51.986;5.696;2023-07-30T05:21:33;18.3;75.0
78455;SHT31;67751;51.986;5.696;2023-07-30T05:24:03;18.3;75.2
78455;SHT31;67751;51.986;5.696;2023-07-30T05:26:32;18.3;75.3
78455;SHT31;67751;51.986;5.696;2023-07-30T05:29:02;18.3;75.0
78455;SHT31;67751;51.986;5.696;2023-07-30T05:31:32;18.4;75.2
78455;SHT31;67751;51.986;5.696;2023-07-30T05:34:02;18.4;75.0
78455;SHT31;67751;51.986;5.696;2023-07-30T05:36:31;18.4;75.1
78455;SHT31;67751;51.986;5.696;2023-07-30T05:39:01;18.4;74.9
78455;SHT31;67751;51.986;5.696;2023-07-30T05:41:31;18.4;75.2
78455;SHT31;67751;51.986;5.696;2023-07-30T05:44:02;18.4;75.0
78455;SHT31;67751;51.986;5.696;2023-07-30T05:46:32;18.4;75.0
78455;SHT31;67751;51.986;5.696;2023-07-30T05:49:01;18.4;75.0
78455;SHT31;67751;51.986;5.696;2023-07-30T05:51:31;18.4;74.8
78455;SHT31;67751;51.986;5.696;2023-07-30T05:54:01;18.4;74.8
78455;SHT31;67751;51.986;5.696;2023-07-30T05:56:30;18.4;74.8
78455;SHT31;67751;51.986;5.696;2023-07-30T05:59:00;18.4;74.9
78455;SHT31;67751;51.986;5.696;2023-07-30T06:01:30;18.4;75.0
78455;SHT31;67751;51.986;5.696;2023-07-30T06:03:59;18.4;75.4
78455;SHT31;67751;51.986;5.696;2023-07-30T06:06:29;18.4;74.8
78455;SHT31;67751;51.986;5.696;2023-07-30T06:08:58;18.5;75.1
78455;SHT31;67751;51.986;5.696;2023-07-30T06:11:28;18.5;75.3
78455;SHT31;67751;51.986;5.696;2023-07-30T06:13:58;18.5;75.3
78455;SHT31;67751;51.986;5.696;2023-07-30T06:16:27;18.5;75.4
78455;SHT31;67751;51.986;5.696;2023-07-30T06:18:57;18.5;75.7
78455;SHT31;67751;51.986;5.696;2023-07-30T06:21:26;18.5;75.2
78455;SHT31;67751;51.986;5.696;2023-07-30T06:23:56;18.5;74.7
78455;SHT31;67751;51.986;5.696;2023-07-30T06:26:26;18.5;75.1
78455;SHT31;67751;51.986;5.696;2023-07-30T06:28:56;18.6;75.4
78455;SHT31;67751;51.986;5.696;2023-07-30T06:31:26;18.6;75.5
78455;SHT31;67751;51.986;5.696;2023-07-30T06:33:55;18.6;75.2
78455;SHT31;67751;51.986;5.696;2023-07-30T06:36:25;18.6;75.8
78455;SHT31;67751;51.986;5.696;2023-07-30T06:38:54;18.6;75.5
78455;SHT31;67751;51.986;5.696;2023-07-30T06:41:26;18.6;75.8
78455;SHT31;67751;51.986;5.696;2023-07-30T06:43:56;18.6;75.2
78455;SHT31;67751;51.986;5.696;2023-07-30T06:46:26;18.6;74.8
78455;SHT31;67751;51.986;5.696;2023-07-30T06:48:55;18.6;75.8
78455;SHT31;67751;51.986;5.696;2023-07-30T06:51:26;18.7;75.5
78455;SHT31;67751;51.986;5.696;2023-07-30T06:53:57;18.7;75.0
78455;SHT31;67751;51.986;5.696;2023-07-30T06:56:28;18.7;75.2
78455;SHT31;67751;51.986;5.696;2023-07-30T06:58:58;18.7;75.3
78455;SHT31;67751;51.986;5.696;2023-07-30T07:01:28;18.7;74.7
78455;SHT31;67751;51.986;5.696;2023-07-30T07:03:57;18.7;75.5
78455;SHT31;67751;51.986;5.696;2023-07-30T07:06:29;18.8;75.5
78455;SHT31;67751;51.986;5.696;2023-07-30T07:08:58;18.8;75.6
78455;SHT31;67751;51.986;5.696;2023-07-30T07:11:28;18.8;75.8
78455;SHT31;67751;51.986;5.696;2023-07-30T07:13:57;18.8;75.3
78455;SHT31;67751;51.986;5.696;2023-07-30T07:16:27;18.9;75.3
78455;SHT31;67751;51.986;5.696;2023-07-30T07:18:56;18.9;75.0
78455;SHT31;67751;51.986;5.696;2023-07-30T07:21:26;18.9;75.0
78455;SHT31;67751;51.986;5.696;2023-07-30T07:23:55;18.9;74.7
78455;SHT31;67751;51.986;5.696;2023-07-30T07:26:25;18.9;74.5
78455;SHT31;67751;51.986;5.696;2023-07-30T07:28:55;19.0;74.2
78455;SHT31;67751;51.986;5.696;2023-07-30T07:31:25;19.0;73.4
78455;SHT31;67751;51.986;5.696;2023-07-30T07:33:54;19.0;73.9
78455;SHT31;67751;51.986;5.696;2023-07-30T07:36:24;19.0;73.6
78455;SHT31;67751;51.986;5.696;2023-07-30T07:38:54;19.0;73.7
78455;SHT31;67751;51.986;5.696;2023-07-30T07:41:23;19.0;73.7
78455;SHT31;67751;51.986;5.696;2023-07-30T07:43:53;19.0;72.7
78455;SHT31;67751;51.986;5.696;2023-07-30T07:46:25;19.0;72.5
78455;SHT31;67751;51.986;5.696;2023-07-30T07:48:55;19.0;73.3
78455;SHT31;67751;51.986;5.696;2023-07-30T07:51:25;19.0;73.1
78455;SHT31;67751;51.986;5.696;2023-07-30T07:53:55;19.0;72.9
78455;SHT31;67751;51.986;5.696;2023-07-30T07:56:25;19.0;73.9
78455;SHT31;67751;51.986;5.696;2023-07-30T07:58:55;19.0;74.1
78455;SHT31;67751;51.986;5.696;2023-07-30T08:01:24;19.0;73.6
78455;SHT31;67751;51.986;5.696;2023-07-30T08:03:55;19.0;73.7
78455;SHT31;67751;51.986;5.696;2023-07-30T08:06:25;19.0;73.1
78455;SHT31;67751;51.986;5.696;2023-07-30T08:08:55;19.0;71.8
78455;SHT31;67751;51.986;5.696;2023-07-30T08:11:24;19.0;72.6
78455;SHT31;67751;51.986;5.696;2023-07-30T08:13:54;19.0;73.1
78455;SHT31;67751;51.986;5.696;2023-07-30T08:16:24;19.0;73.9
78455;SHT31;67751;51.986;5.696;2023-07-30T08:18:56;19.0;72.6
78455;SHT31;67751;51.986;5.696;2023-07-30T08:21:25;19.0;72.8
78455;SHT31;67751;51.986;5.696;2023-07-30T08:23:55;19.1;72.8
78455;SHT31;67751;51.986;5.696;2023-07-30T08:26:24;19.1;73.1
78455;SHT31;67751;51.986;5.696;2023-07-30T08:28:54;19.1;72.7
78455;SHT31;67751;51.986;5.696;2023-07-30T08:31:24;19.1;74.1
78455;SHT31;67751;51.986;5.696;2023-07-30T08:33:53;19.2;73.2
78455;SHT31;67751;51.986;5.696;2023-07-30T08:36:23;19.2;72.4
78455;SHT31;67751;51.986;5.696;2023-07-30T08:38:53;19.2;71.9
78455;SHT31;67751;51.986;5.696;2023-07-30T08:41:22;19.3;73.1
78455;SHT31;67751;51.986;5.696;2023-07-30T08:43:54;19.3;72.9
78455;SHT31;67751;51.986;5.696;2023-07-30T08:46:24;19.4;71.6
78455;SHT31;67751;51.986;5.696;2023-07-30T08:48:54;19.4;68.8
78455;SHT31;67751;51.986;5.696;2023-07-30T08:51:25;19.4;69.1
78455;SHT31;67751;51.986;5.696;2023-07-30T08:53:57;19.4;69.1
78455;SHT31;67751;51.986;5.696;2023-07-30T08:56:27;19.4;69.5
78455;SHT31;67751;51.986;5.696;2023-07-30T08:58:57;19.4;69.9
78455;SHT31;67751;51.986;5.696;2023-07-30T09:01:30;19.4;69.9
78455;SHT31;67751;51.986;5.696;2023-07-30T09:04:07;19.4;69.1
78455;SHT31;67751;51.986;5.696;2023-07-30T09:06:37;19.5;68.9
78455;SHT31;67751;51.986;5.696;2023-07-30T09:09:09;19.5;68.5
78455;SHT31;67751;51.986;5.696;2023-07-30T09:11:39;19.4;68.0
78455;SHT31;67751;51.986;5.696;2023-07-30T09:14:09;19.4;69.8
78455;SHT31;67751;51.986;5.696;2023-07-30T09:16:39;19.4;70.3
78455;SHT31;67751;51.986;5.696;2023-07-30T09:19:08;19.4;69.4
78455;SHT31;67751;51.986;5.696;2023-07-30T09:21:38;19.4;69.2
78455;SHT31;67751;51.986;5.696;2023-07-30T09:24:08;19.4;70.4
78455;SHT31;67751;51.986;5.696;2023-07-30T09:26:42;19.5;69.7
78455;SHT31;67751;51.986;5.696;2023-07-30T09:29:12;19.5;69.5
78455;SHT31;67751;51.986;5.696;2023-07-30T09:31:50;19.5;68.4
78455;SHT31;67751;51.986;5.696;2023-07-30T09:34:23;19.5;69.3
78455;SHT31;67751;51.986;5.696;2023-07-30T09:36:54;19.5;70.8
78455;SHT31;67751;51.986;5.696;2023-07-30T09:39:26;19.6;69.6
78455;SHT31;67751;51.986;5.696;2023-07-30T09:42:00;19.6;69.2
78455;SHT31;67751;51.986;5.696;2023-07-30T09:44:32;19.7;69.2
78455;SHT31;67751;51.986;5.696;2023-07-30T09:47:03;19.8;69.9
78455;SHT31;67751;51.986;5.696;2023-07-30T09:49:33;19.8;68.7
78455;SHT31;67751;51.986;5.696;2023-07-30T09:52:04;19.9;68.5
78455;SHT31;67751;51.986;5.696;2023-07-30T09:54:34;19.9;68.8
78455;SHT31;67751;51.986;5.696;2023-07-30T09:57:06;20.0;66.5
78455;SHT31;67751;51.986;5.696;2023-07-30T09:59:36;20.0;66.5
78455;SHT31;67751;51.986;5.696;2023-07-30T10:02:08;20.0;66.4
78455;SHT31;67751;51.986;5.696;2023-07-30T10:04:43;20.0;66.7
78455;SHT31;67751;51.986;5.696;2023-07-30T10:07:17;20.0;66.7
78455;SHT31;67751;51.986;5.696;2023-07-30T10:09:51;20.0;66.2
78455;SHT31;67751;51.986;5.696;2023-07-30T10:12:28;20.0;64.9
78455;SHT31;67751;51.986;5.696;2023-07-30T10:15:00;20.0;65.6
78455;SHT31;67751;51.986;5.696;2023-07-30T10:17:32;20.0;65.3
78455;SHT31;67751;51.986;5.696;2023-07-30T10:20:20;20.0;66.1
78455;SHT31;67751;51.986;5.696;2023-07-30T10:22:53;20.0;66.9
78455;SHT31;67751;51.986;5.696;2023-07-30T10:25:30;20.0;67.0
78455;SHT31;67751;51.986;5.696;2023-07-30T10:28:05;20.0;66.7
78455;SHT31;67751;51.986;5.696;2023-07-30T10:30:34;20.0;66.3
78455;SHT31;67751;51.986;5.696;2023-07-30T10:33:09;20.0;66.1
78455;SHT31;67751;51.986;5.696;2023-07-30T10:35:43;20.0;65.2
78455;SHT31;67751;51.986;5.696;2023-07-30T10:38:18;20.1;65.1
78455;SHT31;67751;51.986;5.696;2023-07-30T10:41:03;20.1;65.8
78455;SHT31;67751;51.986;5.696;2023-07-30T10:43:38;20.1;66.4
78455;SHT31;67751;51.986;5.696;2023-07-30T10:53:24;20.4;66.1
78455;SHT31;67751;51.986;5.696;2023-07-30T10:55:57;20.5;66.8
78455;SHT31;67751;51.986;5.696;2023-07-30T10:58:28;20.6;64.4
78455;SHT31;67751;51.986;5.696;2023-07-30T11:01:03;20.6;65.2
78455;SHT31;67751;51.986;5.696;2023-07-30T11:03:34;20.6;65.8
78455;SHT31;67751;51.986;5.696;2023-07-30T11:06:05;20.6;65.6
78455;SHT31;67751;51.986;5.696;2023-07-30T11:08:37;20.7;65.3
78455;SHT31;67751;51.986;5.696;2023-07-30T11:11:09;20.7;64.1
78455;SHT31;67751;51.986;5.696;2023-07-30T11:13:41;20.7;63.3
78455;SHT31;67751;51.986;5.696;2023-07-30T11:16:14;20.7;64.7
78455;SHT31;67751;51.986;5.696;2023-07-30T11:18:44;20.7;64.7
78455;SHT31;67751;51.986;5.696;2023-07-30T11:21:17;20.7;63.4
78455;SHT31;67751;51.986;5.696;2023-07-30T11:23:47;20.7;65.0
78455;SHT31;67751;51.986;5.696;2023-07-30T11:26:19;20.7;65.7
78455;SHT31;67751;51.986;5.696;2023-07-30T11:28:49;20.7;64.6
78455;SHT31;67751;51.986;5.696;2023-07-30T11:31:19;20.8;63.5
78455;SHT31;67751;51.986;5.696;2023-07-30T11:33:50;20.8;63.9
78455;SHT31;67751;51.986;5.696;2023-07-30T11:36:22;20.8;62.0
78455;SHT31;67751;51.986;5.696;2023-07-30T11:38:54;20.9;63.7
78455;SHT31;67751;51.986;5.696;2023-07-30T11:41:25;20.9;62.5
78455;SHT31;67751;51.986;5.696;2023-07-30T11:43:55;21.0;62.0
78455;SHT31;67751;51.986;5.696;2023-07-30T11:46:25;21.0;61.4
78455;SHT31;67751;51.986;5.696;2023-07-30T11:49:13;21.0;60.8
78455;SHT31;67751;51.986;5.696;2023-07-30T11:51:44;21.0;58.8
78455;SHT31;67751;51.986;5.696;2023-07-30T11:54:21;21.1;59.1
78455;SHT31;67751;51.986;5.696;2023-07-30T11:56:55;21.1;59.3
78455;SHT31;67751;51.986;5.696;2023-07-30T11:59:25;21.1;60.1
78455;SHT31;67751;51.986;5.696;2023-07-30T12:01:55;21.1;59.8
78455;SHT31;67751;51.986;5.696;2023-07-30T12:04:25;21.2;60.0
78455;SHT31;67751;51.986;5.696;2023-07-30T12:07:00;21.2;61.3
78455;SHT31;67751;51.986;5.696;2023-07-30T12:09:35;21.2;58.8
78455;SHT31;67751;51.986;5.696;2023-07-30T12:12:07;21.3;58.5
78455;SHT31;67751;51.986;5.696;2023-07-30T12:14:54;21.3;58.1
78455;SHT31;67751;51.986;5.696;2023-07-30T12:17:24;21.3;58.0
78455;SHT31;67751;51.986;5.696;2023-07-30T12:19:53;21.3;59.2
78455;SHT31;67751;51.986;5.696;2023-07-30T12:22:23;21.3;58.3
78455;SHT31;67751;51.986;5.696;2023-07-30T12:24:55;21.3;59.5
78455;SHT31;67751;51.986;5.696;2023-07-30T12:27:24;21.3;59.3
78455;SHT31;67751;51.986;5.696;2023-07-30T12:29:54;21.4;59.4
78455;SHT31;67751;51.986;5.696;2023-07-30T12:32:24;21.4;59.5
78455;SHT31;67751;51.986;5.696;2023-07-30T12:34:56;21.4;57.2
78455;SHT31;67751;51.986;5.696;2023-07-30T12:37:25;21.4;56.9
78455;SHT31;67751;51.986;5.696;2023-07-30T12:39:55;21.4;58.7
78455;SHT31;67751;51.986;5.696;2023-07-30T12:42:25;21.5;59.9
78455;SHT31;67751;51.986;5.696;2023-07-30T12:44:54;21.5;58.2
78455;SHT31;67751;51.986;5.696;2023-07-30T12:47:24;21.5;59.4
78455;SHT31;67751;51.986;5.696;2023-07-30T12:49:54;21.5;59.4
78455;SHT31;67751;51.986;5.696;2023-07-30T12:52:23;21.5;58.6
78455;SHT31;67751;51.986;5.696;2023-07-30T12:54:53;21.5;58.8
78455;SHT31;67751;51.986;5.696;2023-07-30T12:57:24;21.5;58.7
78455;SHT31;67751;51.986;5.696;2023-07-30T12:59:54;21.5;59.7
78455;SHT31;67751;51.986;5.696;2023-07-30T13:02:24;21.5;60.5
78455;SHT31;67751;51.986;5.696;2023-07-30T13:04:54;21.5;60.8
78455;SHT31;67751;51.986;5.696;2023-07-30T13:07:23;21.5;58.4
78455;SHT31;67751;51.986;5.696;2023-07-30T13:10:04;21.5;58.9
78455;SHT31;67751;51.986;5.696;2023-07-30T13:12:35;21.5;59.2
78455;SHT31;67751;51.986;5.696;2023-07-30T13:15:05;21.5;60.5
78455;SHT31;67751;51.986;5.696;2023-07-30T13:17:37;21.5;60.0
78455;SHT31;67751;51.986;5.696;2023-07-30T13:20:08;21.5;58.4
78455;SHT31;67751;51.986;5.696;2023-07-30T13:22:37;21.5;57.0
78455;SHT31;67751;51.986;5.696;2023-07-30T13:25:08;21.5;55.3
78455;SHT31;67751;51.986;5.696;2023-07-30T13:27:39;21.5;55.3
78455;SHT31;67751;51.986;5.696;2023-07-30T13:30:10;21.5;54.2
78455;SHT31;67751;51.986;5.696;2023-07-30T13:32:39;21.5;55.0
78455;SHT31;67751;51.986;5.696;2023-07-30T13:35:09;21.5;56.3
78455;SHT31;67751;51.986;5.696;2023-07-30T13:37:39;21.5;56.3
78455;SHT31;67751;51.986;5.696;2023-07-30T13:40:09;21.5;55.7
78455;SHT31;67751;51.986;5.696;2023-07-30T13:42:39;21.5;56.8
78455;SHT31;67751;51.986;5.696;2023-07-30T13:45:11;21.5;56.9
78455;SHT31;67751;51.986;5.696;2023-07-30T13:47:41;21.5;56.5
78455;SHT31;67751;51.986;5.696;2023-07-30T13:50:11;21.5;57.6
78455;SHT31;67751;51.986;5.696;2023-07-30T13:52:40;21.5;55.0
78455;SHT31;67751;51.986;5.696;2023-07-30T13:55:10;21.5;57.1
78455;SHT31;67751;51.986;5.696;2023-07-30T13:57:40;21.5;56.8
78455;SHT31;67751;51.986;5.696;2023-07-30T14:00:11;21.6;57.0
78455;SHT31;67751;51.986;5.696;2023-07-30T14:02:41;21.6;54.3
78455;SHT31;67751;51.986;5.696;2023-07-30T14:05:11;21.6;55.1
78455;SHT31;67751;51.986;5.696;2023-07-30T14:07:41;21.6;55.3
78455;SHT31;67751;51.986;5.696;2023-07-30T14:10:11;21.6;56.0
78455;SHT31;67751;51.986;5.696;2023-07-30T14:12:41;21.7;56.6
78455;SHT31;67751;51.986;5.696;2023-07-30T14:15:11;21.7;55.7
78455;SHT31;67751;51.986;5.696;2023-07-30T14:17:42;21.7;55.2
78455;SHT31;67751;51.986;5.696;2023-07-30T14:20:14;21.8;56.1
78455;SHT31;67751;51.986;5.696;2023-07-30T14:22:43;21.8;55.0
78455;SHT31;67751;51.986;5.696;2023-07-30T14:25:15;21.8;52.6
78455;SHT31;67751;51.986;5.696;2023-07-30T14:27:45;21.8;53.6
78455;SHT31;67751;51.986;5.696;2023-07-30T14:30:15;21.8;52.2
78455;SHT31;67751;51.986;5.696;2023-07-30T14:32:44;21.8;52.5
78455;SHT31;67751;51.986;5.696;2023-07-30T14:35:14;21.8;52.7
78455;SHT31;67751;51.986;5.696;2023-07-30T14:37:44;21.8;52.6
78455;SHT31;67751;51.986;5.696;2023-07-30T14:40:14;21.8;53.5
78455;SHT31;67751;51.986;5.696;2023-07-30T14:42:43;21.8;54.1
78455;SHT31;67751;51.986;5.696;2023-07-30T14:45:14;21.8;52.8
78455;SHT31;67751;51.986;5.696;2023-07-30T14:47:43;21.8;51.7
78455;SHT31;67751;51.986;5.696;2023-07-30T14:50:15;21.8;53.4
78455;SHT31;67751;51.986;5.696;2023-07-30T14:52:45;21.8;53.3
78455;SHT31;67751;51.986;5.696;2023-07-30T14:55:16;21.7;52.8
78455;SHT31;67751;51.986;5.696;2023-07-30T14:57:45;21.7;53.5
78455;SHT31;67751;51.986;5.696;2023-07-30T15:00:17;21.7;53.7
78455;SHT31;67751;51.986;5.696;2023-07-30T15:02:47;21.7;53.1
78455;SHT31;67751;51.986;5.696;2023-07-30T15:05:17;21.7;53.0
78455;SHT31;67751;51.986;5.696;2023-07-30T15:07:47;21.7;55.2
78455;SHT31;67751;51.986;5.696;2023-07-30T15:10:16;21.7;55.2
78455;SHT31;67751;51.986;5.696;2023-07-30T15:12:48;21.7;54.3
78455;SHT31;67751;51.986;5.696;2023-07-30T15:15:18;21.7;55.0
78455;SHT31;67751;51.986;5.696;2023-07-30T15:17:47;21.8;55.1
78455;SHT31;67751;51.986;5.696;2023-07-30T15:20:17;21.8;55.0
78455;SHT31;67751;51.986;5.696;2023-07-30T15:22:47;21.8;53.7
78455;SHT31;67751;51.986;5.696;2023-07-30T15:25:19;21.8;54.3
78455;SHT31;67751;51.986;5.696;2023-07-30T15:27:48;21.8;53.4
78455;SHT31;67751;51.986;5.696;2023-07-30T15:30:18;21.8;53.8
78455;SHT31;67751;51.986;5.696;2023-07-30T15:32:48;21.8;55.8
78455;SHT31;67751;51.986;5.696;2023-07-30T15:35:17;21.8;55.1
78455;SHT31;67751;51.986;5.696;2023-07-30T15:37:47;21.8;53.2
78455;SHT31;67751;51.986;5.696;2023-07-30T15:40:18;21.8;52.8
78455;SHT31;67751;51.986;5.696;2023-07-30T15:42:48;21.7;53.4
78455;SHT31;67751;51.986;5.696;2023-07-30T15:45:18;21.7;53.1
78455;SHT31;67751;51.986;5.696;2023-07-30T15:47:48;21.7;54.1
78455;SHT31;67751;51.986;5.696;2023-07-30T15:50:20;21.7;53.6
78455;SHT31;67751;51.986;5.696;2023-07-30T15:52:54;21.7;54.6
78455;SHT31;67751;51.986;5.696;2023-07-30T15:55:23;21.7;53.9
78455;SHT31;67751;51.986;5.696;2023-07-30T15:57:53;21.7;52.9
78455;SHT31;67751;51.986;5.696;2023-07-30T16:00:23;21.7;52.7
78455;SHT31;67751;51.986;5.696;2023-07-30T16:02:54;21.7;52.8
78455;SHT31;67751;51.986;5.696;2023-07-30T16:05:24;21.7;52.4
78455;SHT31;67751;51.986;5.696;2023-07-30T16:07:53;21.7;52.3
78455;SHT31;67751;51.986;5.696;2023-07-30T16:10:23;21.8;53.0
78455;SHT31;67751;51.986;5.696;2023-07-30T16:12:53;21.8;53.3
78455;SHT31;67751;51.986;5.696;2023-07-30T16:15:25;21.8;54.0
78455;SHT31;67751;51.986;5.696;2023-07-30T16:17:54;21.8;53.5
78455;SHT31;67751;51.986;5.696;2023-07-30T16:20:25;21.8;52.9
78455;SHT31;67751;51.986;5.696;2023-07-30T16:22:54;21.8;54.4
78455;SHT31;67751;51.986;5.696;2023-07-30T16:25:24;21.7;55.2
78455;SHT31;67751;51.986;5.696;2023-07-30T16:27:54;21.7;54.6
78455;SHT31;67751;51.986;5.696;2023-07-30T16:30:24;21.7;55.2